Time;durP1;ratioP1;P1;durP2;ratioP2;P2;SDS_P1;SDS_P2;PMS_P1;PMS_P2;Temp;Humidity;BMP_temperature;BMP_pressure;BME280_temperature;BME280_humidity;BME280_pressure;Samples;Min_cycle;Max_cycle;Signal;HPM_P1;HPM_P2
2022/01/08 00:00:40;;;;;;;37.83;21.00;;;;;;;;;;5067131;28;20352;-73
2022/01/08 00:03:21;;;;;;;37.10;21.10;;;;;;;;;;5081383;28;20051;-73
2022/01/08 00:06:12;;;;;;;39.90;21.92;;;;;;;;;;5081868;28;20047;-73
2022/01/08 00:08:53;;;;;;;38.05;20.92;;;;;;;;;;5085686;28;20113;-73
2022/01/08 00:11:42;;;;;;;38.35;21.75;;;;;;;;;;5066509;28;20057;-74
2022/01/08 00:14:25;;;;;;;41.60;22.48;;;;;;;;;;5064918;28;20053;-73
2022/01/08 00:17:14;;;;;;;37.83;21.70;;;;;;;;;;5047146;28;20047;-73
2022/01/08 00:19:55;;;;;;;44.38;22.15;;;;;;;;;;5063720;28;20517;-73
2022/01/08 00:22:44;;;;;;;44.17;22.65;;;;;;;;;;5055074;28;20048;-72
2022/01/08 00:25:25;;;;;;;40.55;20.95;;;;;;;;;;5088569;28;20125;-73
2022/01/08 00:28:15;;;;;;;38.53;21.88;;;;;;;;;;5073795;28;20118;-73
2022/01/08 00:31:11;;;;;;;38.30;21.27;;;;;;;;;;5084929;28;20044;-72
2022/01/08 00:33:49;;;;;;;42.50;21.98;;;;;;;;;;5086683;28;20052;-73
2022/01/08 00:36:45;;;;;;;38.97;22.35;;;;;;;;;;5088921;28;20101;-73
2022/01/08 00:39:20;;;;;;;40.40;22.65;;;;;;;;;;5088690;28;20063;-73
2022/01/08 00:42:08;;;;;;;42.25;23.70;;;;;;;;;;5070349;28;20480;-72
2022/01/08 00:44:51;;;;;;;46.55;23.88;;;;;;;;;;5089796;28;20048;-72
2022/01/08 00:47:47;;;;;;;47.15;23.45;;;;;;;;;;5070098;28;20044;-72
2022/01/08 00:50:22;;;;;;;40.72;23.23;;;;;;;;;;5088267;28;20535;-73
2022/01/08 00:53:10;;;;;;;46.05;25.42;;;;;;;;;;5088578;28;20036;-73
2022/01/08 00:55:59;;;;;;;44.25;25.85;;;;;;;;;;5088986;28;20039;-73
2022/01/08 00:58:48;;;;;;;46.83;26.33;;;;;;;;;;5088788;28;20479;-73
2022/01/08 01:01:31;;;;;;;52.20;29.75;;;;;;;;;;5087547;28;20043;-73
2022/01/08 01:04:19;;;;;;;50.65;29.80;;;;;;;;;;5067862;28;20048;-73
2022/01/08 01:07:08;;;;;;;50.53;29.38;;;;;;;;;;5067926;28;20464;-72
2022/01/08 01:09:57;;;;;;;53.92;30.48;;;;;;;;;;5068095;28;20635;-73
2022/01/08 01:12:39;;;;;;;50.45;29.50;;;;;;;;;;5068262;28;20068;-72
2022/01/08 01:15:27;;;;;;;53.60;31.35;;;;;;;;;;5067328;28;20052;-73
2022/01/08 01:18:10;;;;;;;58.90;33.05;;;;;;;;;;5067580;28;20157;-73
2022/01/08 01:21:05;;;;;;;60.03;33.65;;;;;;;;;;5046495;28;20045;-73
2022/01/08 01:23:43;;;;;;;69.35;37.88;;;;;;;;;;5022490;28;20055;-72
2022/01/08 01:26:44;;;;;;;69.28;38.33;;;;;;;;;;5048934;28;20147;-73
2022/01/08 01:41:32;;;;;;;74.47;43.55;;;;;;;;;;5057500;28;20041;-71
2022/01/08 01:47:22;;;;;;;77.72;42.88;;;;;;;;;;5068718;28;20037;-73
2022/01/08 01:50:11;;;;;;;75.18;41.78;;;;;;;;;;5067147;28;20072;-74
2022/01/08 01:52:53;;;;;;;86.18;42.92;;;;;;;;;;5066657;28;20044;-72
2022/01/08 01:55:42;;;;;;;92.90;45.40;;;;;;;;;;5047589;28;20136;-72
2022/01/08 01:58:24;;;;;;;87.75;43.63;;;;;;;;;;5054367;28;20049;-72
2022/01/08 02:01:13;;;;;;;96.70;46.25;;;;;;;;;;5063452;28;20151;-71
2022/01/08 02:04:09;;;;;;;101.95;47.28;;;;;;;;;;5087198;28;20079;-72
2022/01/08 02:06:58;;;;;;;120.30;50.35;;;;;;;;;;5085906;28;20048;-73
2022/01/08 02:09:40;;;;;;;114.18;50.00;;;;;;;;;;5068914;28;20658;-73
2022/01/08 02:12:40;;;;;;;121.57;49.65;;;;;;;;;;5087427;28;20712;-73
2022/01/08 02:15:15;;;;;;;118.25;49.95;;;;;;;;;;5086299;28;20113;-73
2022/01/08 02:18:04;;;;;;;118.25;49.03;;;;;;;;;;5089303;28;20356;-73
2022/01/08 02:20:53;;;;;;;132.73;52.47;;;;;;;;;;5059760;28;20422;-73
2022/01/08 02:23:42;;;;;;;124.07;52.15;;;;;;;;;;5049202;28;20110;-73
2022/01/08 02:26:31;;;;;;;126.90;50.35;;;;;;;;;;5078848;28;20032;-73
2022/01/08 02:29:13;;;;;;;128.35;51.72;;;;;;;;;;5077659;28;20052;-73
2022/01/08 02:32:05;;;;;;;115.93;50.80;;;;;;;;;;5087643;28;20051;-72
2022/01/08 02:34:48;;;;;;;129.68;51.95;;;;;;;;;;5085017;28;20351;-73
2022/01/08 02:37:37;;;;;;;108.22;48.80;;;;;;;;;;5086706;28;20146;-73
2022/01/08 02:40:19;;;;;;;121.50;50.22;;;;;;;;;;5068908;28;20044;-73
2022/01/08 02:43:08;;;;;;;116.13;50.35;;;;;;;;;;5085081;28;20055;-73
2022/01/08 02:45:50;;;;;;;125.88;50.60;;;;;;;;;;5085348;28;20084;-73
2022/01/08 02:48:39;;;;;;;110.28;49.53;;;;;;;;;;5098425;28;20133;-72
2022/01/08 02:51:21;;;;;;;123.10;50.45;;;;;;;;;;5084114;28;20047;-73
2022/01/08 02:54:13;;;;;;;109.97;49.47;;;;;;;;;;5080202;28;20058;-72
2022/01/08 02:56:56;;;;;;;107.57;49.38;;;;;;;;;;5068240;28;20039;-72
2022/01/08 02:59:45;;;;;;;109.38;49.00;;;;;;;;;;5075472;28;20055;-73
2022/01/08 03:02:41;;;;;;;113.57;49.17;;;;;;;;;;5085876;28;20061;-73
2022/01/08 03:05:29;;;;;;;130.02;50.72;;;;;;;;;;5068893;28;20074;-72
2022/01/08 03:08:12;;;;;;;130.85;53.38;;;;;;;;;;5084866;28;20043;-73
2022/01/08 03:11:05;;;;;;;139.60;55.22;;;;;;;;;;5078725;28;20051;-72
2022/01/08 03:13:48;;;;;;;169.23;60.10;;;;;;;;;;5085814;28;20059;-73
2022/01/08 03:16:38;;;;;;;149.50;56.55;;;;;;;;;;5062813;28;20426;-73
2022/01/08 03:19:23;;;;;;;161.00;57.33;;;;;;;;;;5064666;28;20041;-72
2022/01/08 03:22:12;;;;;;;161.30;56.72;;;;;;;;;;5063610;28;20052;-68
2022/01/08 03:24:54;;;;;;;165.73;55.88;;;;;;;;;;5076028;28;20084;-68
2022/01/08 03:27:42;;;;;;;162.40;55.25;;;;;;;;;;5073467;28;20052;-68
2022/01/08 03:30:26;;;;;;;175.32;56.50;;;;;;;;;;5061628;28;20159;-68
2022/01/08 03:33:22;;;;;;;158.43;53.83;;;;;;;;;;5076069;28;20043;-68
2022/01/08 03:35:57;;;;;;;165.05;56.75;;;;;;;;;;5085367;28;20105;-68
2022/01/08 03:38:45;;;;;;;166.63;57.13;;;;;;;;;;5084849;28;20101;-68
2022/01/08 03:41:28;;;;;;;160.10;55.05;;;;;;;;;;5080307;28;20059;-69
2022/01/08 03:44:16;;;;;;;157.20;54.05;;;;;;;;;;5086606;28;20056;-70
2022/01/08 03:50:12;;;;;;;170.63;56.03;;;;;;;;;;5082758;28;20098;-68
2022/01/08 03:52:55;;;;;;;167.68;57.55;;;;;;;;;;5081855;28;20134;-66
2022/01/08 03:55:51;;;;;;;173.40;55.13;;;;;;;;;;5050575;28;20110;-67
2022/01/08 03:58:27;;;;;;;174.45;57.78;;;;;;;;;;5053945;28;20041;-66
2022/01/08 04:01:23;;;;;;;171.93;58.10;;;;;;;;;;5068552;28;20047;-68
2022/01/08 04:04:04;;;;;;;162.18;56.17;;;;;;;;;;5083916;28;20058;-68
2022/01/08 04:06:53;;;;;;;180.93;56.38;;;;;;;;;;5076835;28;20135;-70
2022/01/08 04:09:34;;;;;;;169.30;56.92;;;;;;;;;;5069743;28;20059;-70
2022/01/08 04:12:49;;;;;;;157.82;53.55;;;;;;;;;;5083672;28;20086;-69
2022/01/08 04:18:14;;;;;;;121.63;43.88;;;;;;;;;;5085062;28;20051;-69
2022/01/08 04:23:48;;;;;;;114.78;40.58;;;;;;;;;;5082085;28;20040;-69
2022/01/08 04:26:30;;;;;;;102.40;38.28;;;;;;;;;;5084347;28;20058;-69
2022/01/08 04:29:20;;;;;;;105.38;39.17;;;;;;;;;;5065027;28;20060;-69
2022/01/08 04:32:01;;;;;;;99.38;38.85;;;;;;;;;;5084982;28;20044;-70
2022/01/08 04:34:50;;;;;;;102.30;38.13;;;;;;;;;;5072591;28;20052;-68
2022/01/08 04:37:39;;;;;;;106.43;39.00;;;;;;;;;;5082882;28;20048;-69
2022/01/08 04:40:28;;;;;;;91.55;35.58;;;;;;;;;;5080562;28;20044;-68
2022/01/08 04:43:16;;;;;;;91.93;36.28;;;;;;;;;;5047580;28;20255;-68
2022/01/08 04:45:59;;;;;;;88.32;35.70;;;;;;;;;;5067498;28;20044;-69
2022/01/08 04:48:54;;;;;;;91.55;34.38;;;;;;;;;;5085332;28;20058;-69
2022/01/08 04:51:29;;;;;;;86.65;34.70;;;;;;;;;;5067380;28;20036;-69
2022/01/08 04:54:20;;;;;;;88.15;34.50;;;;;;;;;;5069328;28;20105;-67
2022/01/08 04:57:01;;;;;;;79.13;31.58;;;;;;;;;;5067029;28;20048;-68
2022/01/08 04:59:49;;;;;;;84.63;33.70;;;;;;;;;;5069501;28;20670;-68
2022/01/08 05:02:32;;;;;;;73.28;30.27;;;;;;;;;;5059642;28;20048;-69
2022/01/08 05:05:21;;;;;;;77.65;31.38;;;;;;;;;;5044734;28;20044;-70
2022/01/08 05:08:04;;;;;;;69.85;30.98;;;;;;;;;;5061058;28;20045;-67
2022/01/08 05:10:59;;;;;;;75.95;31.08;;;;;;;;;;5058919;28;20156;-69
2022/01/08 05:13:37;;;;;;;64.32;28.90;;;;;;;;;;5044047;28;20048;-69
2022/01/08 05:16:28;;;;;;;67.60;29.50;;;;;;;;;;5055773;28;20036;-69
2022/01/08 05:19:11;;;;;;;67.22;28.83;;;;;;;;;;5046587;28;20085;-69
2022/01/08 05:22:00;;;;;;;63.97;30.55;;;;;;;;;;5049075;28;20063;-69
2022/01/08 05:24:49;;;;;;;62.05;29.42;;;;;;;;;;5055312;28;20048;-68
2022/01/08 05:27:37;;;;;;;61.90;28.15;;;;;;;;;;5047416;28;20049;-69
2022/01/08 05:30:22;;;;;;;51.17;26.42;;;;;;;;;;5056914;28;20045;-69
2022/01/08 05:33:17;;;;;;;51.40;25.40;;;;;;;;;;5055676;28;20067;-69
2022/01/08 05:35:53;;;;;;;47.75;25.75;;;;;;;;;;5052678;28;20046;-70
2022/01/08 05:38:49;;;;;;;47.20;24.42;;;;;;;;;;5059032;28;20045;-70
2022/01/08 05:41:24;;;;;;;49.97;25.08;;;;;;;;;;5036801;28;20460;-71
2022/01/08 05:44:20;;;;;;;40.33;23.38;;;;;;;;;;5023240;28;20103;-71
2022/01/08 05:46:56;;;;;;;45.58;24.20;;;;;;;;;;5007184;28;20045;-71
2022/01/08 05:49:51;;;;;;;44.47;22.98;;;;;;;;;;5066967;28;20546;-68
2022/01/08 05:52:26;;;;;;;45.70;22.48;;;;;;;;;;5044933;28;20041;-68
2022/01/08 05:55:15;;;;;;;36.40;20.20;;;;;;;;;;5037469;28;20049;-68
2022/01/08 05:57:56;;;;;;;40.20;20.35;;;;;;;;;;5020461;28;20134;-68
2022/01/08 06:00:53;;;;;;;39.75;20.30;;;;;;;;;;5036397;28;20482;-68
2022/01/08 06:03:34;;;;;;;41.15;20.25;;;;;;;;;;5047151;28;20052;-68
2022/01/08 06:06:23;;;;;;;39.67;20.13;;;;;;;;;;5054538;28;20064;-71
2022/01/08 06:09:04;;;;;;;39.72;19.33;;;;;;;;;;5056358;28;20045;-67
2022/01/08 06:11:53;;;;;;;41.03;19.33;;;;;;;;;;5069864;28;20127;-68
2022/01/08 06:14:42;;;;;;;38.90;18.00;;;;;;;;;;5077040;28;20056;-66
2022/01/08 06:17:33;;;;;;;34.65;18.17;;;;;;;;;;5076894;28;20723;-67
2022/01/08 06:20:14;;;;;;;38.80;18.70;;;;;;;;;;5072413;28;20048;-66
2022/01/08 06:23:04;;;;;;;37.05;18.70;;;;;;;;;;5047057;28;20043;-67
2022/01/08 06:25:45;;;;;;;31.90;17.00;;;;;;;;;;5048039;28;20129;-67
2022/01/08 06:28:33;;;;;;;37.95;19.02;;;;;;;;;;5075297;28;20060;-67
2022/01/08 06:31:16;;;;;;;35.97;18.98;;;;;;;;;;5084317;28;20044;-67
2022/01/08 06:34:05;;;;;;;37.60;18.73;;;;;;;;;;5080535;28;20055;-67
2022/01/08 06:36:49;;;;;;;39.15;19.50;;;;;;;;;;5073915;28;20153;-65
2022/01/08 06:39:38;;;;;;;36.72;20.00;;;;;;;;;;5080055;28;20055;-66
2022/01/08 06:42:19;;;;;;;37.95;18.30;;;;;;;;;;5080173;28;20370;-68
2022/01/08 06:45:09;;;;;;;40.55;20.35;;;;;;;;;;5075289;28;20055;-66
2022/01/08 06:47:51;;;;;;;37.28;19.23;;;;;;;;;;5068310;28;20124;-69
2022/01/08 06:50:42;;;;;;;41.60;20.92;;;;;;;;;;5059454;28;20163;-66
2022/01/08 06:53:24;;;;;;;41.03;21.23;;;;;;;;;;5073020;28;20058;-68
2022/01/08 06:56:13;;;;;;;40.28;22.27;;;;;;;;;;5076650;28;20048;-68
2022/01/08 06:58:56;;;;;;;40.67;21.30;;;;;;;;;;5074311;28;20798;-65
2022/01/08 07:01:46;;;;;;;49.80;27.63;;;;;;;;;;5069737;28;20044;-66
2022/01/08 07:04:27;;;;;;;54.72;30.73;;;;;;;;;;5070104;28;20059;-66
2022/01/08 07:07:18;;;;;;;57.67;33.47;;;;;;;;;;5075368;28;20048;-65
2022/01/08 07:10:00;;;;;;;59.55;29.30;;;;;;;;;;5065259;28;20040;-68
2022/01/08 07:12:49;;;;;;;59.00;28.80;;;;;;;;;;5062787;28;20048;-67
2022/01/08 07:15:30;;;;;;;55.00;29.02;;;;;;;;;;5076487;28;20396;-64
2022/01/08 07:18:19;;;;;;;57.20;29.40;;;;;;;;;;5079576;28;20143;-67
2022/01/08 07:21:00;;;;;;;58.28;30.33;;;;;;;;;;5073479;28;20143;-67
2022/01/08 07:23:50;;;;;;;61.28;30.45;;;;;;;;;;5065664;28;20071;-66
2022/01/08 07:26:35;;;;;;;58.88;31.10;;;;;;;;;;5059176;28;20037;-67
2022/01/08 07:29:27;;;;;;;;;;;;;;;;;;5067135;28;20139;-68
2022/01/08 07:32:09;;;;;;;60.58;29.20;;;;;;;;;;5058300;28;19924;-67
2022/01/08 07:34:58;;;;;;;59.97;28.23;;;;;;;;;;5057359;28;20044;-66
2022/01/08 07:37:39;;;;;;;57.60;28.90;;;;;;;;;;5072708;28;20048;-66
2022/01/08 07:40:29;;;;;;;57.70;29.25;;;;;;;;;;5059329;28;20189;-67
2022/01/08 07:43:14;;;;;;;63.70;29.63;;;;;;;;;;5061377;28;20459;-68
2022/01/08 07:46:07;;;;;;;59.17;29.70;;;;;;;;;;5076810;28;20036;-72
2022/01/08 07:48:43;;;;;;;;;;;;;;;;;;5069751;28;20055;-68
2022/01/08 07:51:40;;;;;;;58.03;28.95;;;;;;;;;;5068559;28;19928;-68
2022/01/08 07:54:15;;;;;;;68.53;29.17;;;;;;;;;;5075399;28;20052;-69
2022/01/08 07:57:11;;;;;;;67.57;31.70;;;;;;;;;;5079104;28;20044;-68
2022/01/08 07:59:46;;;;;;;72.38;32.45;;;;;;;;;;5076927;28;20044;-68
2022/01/08 08:02:51;;;;;;;63.85;30.52;;;;;;;;;;5064536;28;20067;-69
2022/01/08 08:05:39;;;;;;;56.72;29.58;;;;;;;;;;5077834;28;20131;-70
2022/01/08 08:08:28;;;;;;;66.38;30.55;;;;;;;;;;5067569;28;20063;-69
2022/01/08 08:11:10;;;;;;;52.28;28.25;;;;;;;;;;5079159;28;20048;-73
2022/01/08 08:14:01;;;;;;;51.75;26.65;;;;;;;;;;5072719;28;20036;-72
2022/01/08 08:16:43;;;;;;;55.08;25.85;;;;;;;;;;5075377;28;20471;-74
2022/01/08 08:19:32;;;;;;;63.08;28.40;;;;;;;;;;5076457;28;20139;-73
2022/01/08 08:22:13;;;;;;;56.78;29.35;;;;;;;;;;5042559;28;20052;-73
2022/01/08 08:25:03;;;;;;;51.50;27.08;;;;;;;;;;5066417;28;20040;-74
2022/01/08 08:27:44;;;;;;;48.10;25.58;;;;;;;;;;5078003;28;20591;-73
2022/01/08 08:30:34;;;;;;;47.55;25.08;;;;;;;;;;5075584;28;20044;-73
2022/01/08 08:33:15;;;;;;;53.45;27.10;;;;;;;;;;5079106;28;20055;-72
2022/01/08 08:36:06;;;;;;;54.30;26.95;;;;;;;;;;5047617;28;20055;-74
2022/01/08 08:38:49;;;;;;;49.13;25.50;;;;;;;;;;5065895;28;20044;-73
2022/01/08 08:41:39;;;;;;;54.30;25.63;;;;;;;;;;5078687;28;20040;-75
2022/01/08 08:44:21;;;;;;;51.85;24.95;;;;;;;;;;5067513;28;20039;-72
2022/01/08 08:47:10;;;;;;;49.72;26.30;;;;;;;;;;5085565;28;20051;-69
2022/01/08 08:49:55;;;;;;;51.97;26.90;;;;;;;;;;5059741;28;20044;-73
2022/01/08 08:52:46;;;;;;;50.60;25.65;;;;;;;;;;5065445;28;21177;-74
2022/01/08 08:55:31;;;;;;;60.15;27.15;;;;;;;;;;5064151;28;20059;-74
2022/01/08 08:58:20;;;;;;;53.55;26.70;;;;;;;;;;5088578;28;20048;-74
2022/01/08 09:01:02;;;;;;;47.45;26.58;;;;;;;;;;5077355;28;20071;-73
2022/01/08 09:03:57;;;;;;;59.30;27.45;;;;;;;;;;5084441;28;20075;-72
2022/01/08 09:06:45;;;;;;;48.67;26.30;;;;;;;;;;5066679;28;20052;-73
2022/01/08 09:09:34;;;;;;;48.50;25.55;;;;;;;;;;5062173;28;20384;-72
2022/01/08 09:12:22;;;;;;;49.50;25.13;;;;;;;;;;5078001;28;20067;-74
2022/01/08 09:15:05;;;;;;;53.28;25.13;;;;;;;;;;5089304;28;20121;-71
2022/01/08 09:18:02;;;;;;;48.65;25.77;;;;;;;;;;5059133;28;20162;-78
2022/01/08 09:20:37;;;;;;;51.13;27.15;;;;;;;;;;5072545;28;20036;-75
2022/01/08 09:23:31;;;;;;;51.67;27.42;;;;;;;;;;5072046;28;20055;-73
2022/01/08 09:26:16;;;;;;;53.67;27.33;;;;;;;;;;5084389;28;20036;-73
2022/01/08 09:29:16;;;;;;;60.15;28.38;;;;;;;;;;5067645;28;20048;-73
2022/01/08 09:31:51;;;;;;;54.92;27.10;;;;;;;;;;5087662;28;20263;-74
2022/01/08 09:34:39;;;;;;;54.03;27.77;;;;;;;;;;5088115;28;20040;-74
2022/01/08 09:37:29;;;;;;;64.85;28.02;;;;;;;;;;5088339;28;20055;-74
2022/01/08 09:40:18;;;;;;;55.30;28.02;;;;;;;;;;5069038;28;20044;-74
2022/01/08 09:43:07;;;;;;;62.88;29.92;;;;;;;;;;5072785;28;20040;-74
2022/01/08 09:45:49;;;;;;;62.30;29.48;;;;;;;;;;5088694;28;20036;-74
2022/01/08 09:48:38;;;;;;;62.20;29.70;;;;;;;;;;5091844;28;20075;-73
2022/01/08 09:51:19;;;;;;;63.33;30.58;;;;;;;;;;5088461;28;20036;-73
2022/01/08 09:54:09;;;;;;;64.57;31.88;;;;;;;;;;5082168;28;20356;-73
2022/01/08 09:56:51;;;;;;;65.40;33.45;;;;;;;;;;5063168;28;20142;-72
2022/01/08 09:59:40;;;;;;;62.58;31.92;;;;;;;;;;5059618;28;20355;-72
2022/01/08 10:02:36;;;;;;;60.17;31.48;;;;;;;;;;5082422;28;20055;-73
2022/01/08 10:05:17;;;;;;;68.28;32.45;;;;;;;;;;5077297;28;20126;-71
2022/01/08 10:08:07;;;;;;;63.72;33.33;;;;;;;;;;5075105;28;20048;-76
2022/01/08 10:10:57;;;;;;;63.90;32.05;;;;;;;;;;5079236;28;20425;-73
2022/01/08 10:13:50;;;;;;;66.45;34.30;;;;;;;;;;5078753;28;20125;-72
2022/01/08 10:19:49;;;;;;;60.38;32.25;;;;;;;;;;5065820;28;20056;-73
2022/01/08 10:22:37;;;;;;;62.65;32.72;;;;;;;;;;5076937;28;20040;-74
2022/01/08 10:25:21;;;;;;;65.38;32.83;;;;;;;;;;5077858;28;20071;-74
2022/01/08 10:28:09;;;;;;;63.90;31.83;;;;;;;;;;5077968;28;20047;-74
2022/01/08 10:30:51;;;;;;;68.65;31.63;;;;;;;;;;5078604;28;20071;-72
2022/01/08 10:33:40;;;;;;;61.80;33.10;;;;;;;;;;5061941;28;20059;-70
2022/01/08 10:36:27;;;;;;;67.55;33.35;;;;;;;;;;5064500;28;20125;-70
2022/01/08 10:39:20;;;;;;;71.80;36.35;;;;;;;;;;5076362;28;20551;-73
2022/01/08 10:42:03;;;;;;;69.88;34.90;;;;;;;;;;5076059;28;20071;-69
2022/01/08 10:44:52;;;;;;;76.88;35.83;;;;;;;;;;5077904;28;20048;-74
2022/01/08 10:47:41;;;;;;;76.93;36.28;;;;;;;;;;5082826;28;20043;-71
2022/01/08 11:25:57;;;;;;;56.90;29.20;;;;;;;;;;5046946;28;20192;-68
2022/01/08 11:49:52;;;;;;;55.20;27.42;;;;;;;;;;5076946;28;20031;-67
2022/01/08 11:52:41;;;;;;;52.03;30.60;;;;;;;;;;5056889;28;20168;-71
2022/01/08 11:55:43;;;;;;;55.60;27.30;;;;;;;;;;5060090;28;20068;-66
2022/01/08 11:58:35;;;;;;;55.50;27.00;;;;;;;;;;5053214;28;20053;-72
2022/01/08 12:01:17;;;;;;;52.40;27.50;;;;;;;;;;5069992;28;20149;-65
2022/01/08 12:04:06;;;;;;;50.22;26.90;;;;;;;;;;5073818;28;20756;-66
2022/01/08 12:06:47;;;;;;;53.65;29.27;;;;;;;;;;5076148;28;20040;-69
2022/01/08 12:09:40;;;;;;;54.85;29.15;;;;;;;;;;5060813;28;20068;-66
2022/01/08 12:12:48;;;;;;;59.37;30.27;;;;;;;;;;5078937;28;20064;-66
2022/01/08 12:15:46;;;;;;;59.28;30.55;;;;;;;;;;5083065;28;20327;-68
2022/01/08 12:18:59;;;;;;;57.45;29.92;;;;;;;;;;5074645;28;20055;-65
2022/01/08 12:21:35;;;;;;;51.40;28.67;;;;;;;;;;5065463;28;20102;-64
2022/01/08 12:24:24;;;;;;;64.28;31.63;;;;;;;;;;5067515;28;20101;-68
2022/01/08 12:27:26;;;;;;;59.05;31.42;;;;;;;;;;5004912;28;20045;-69
2022/01/08 12:30:21;;;;;;;67.90;32.90;;;;;;;;;;5053201;28;20506;-67
2022/01/08 12:33:27;;;;;;;63.03;32.08;;;;;;;;;;5069566;28;20235;-67
2022/01/08 12:36:34;;;;;;;73.05;34.95;;;;;;;;;;5062599;28;20039;-69
2022/01/08 12:39:50;;;;;;;67.50;35.25;;;;;;;;;;5061847;28;20512;-67
2022/01/08 12:42:32;;;;;;;72.22;35.88;;;;;;;;;;5035560;28;20439;-67
2022/01/08 12:45:25;;;;;;;70.28;36.00;;;;;;;;;;5068481;28;20044;-67
2022/01/08 12:48:08;;;;;;;72.90;35.58;;;;;;;;;;5067436;28;20135;-66
2022/01/08 12:51:05;;;;;;;75.45;35.95;;;;;;;;;;5050208;28;20049;-69
2022/01/08 12:54:03;;;;;;;76.07;36.00;;;;;;;;;;5057086;28;20075;-66
2022/01/08 12:57:05;;;;;;;79.57;37.65;;;;;;;;;;5059890;28;20059;-67
2022/01/08 12:59:49;;;;;;;81.43;39.38;;;;;;;;;;5056506;28;20060;-68
2022/01/08 13:02:38;;;;;;;88.47;41.00;;;;;;;;;;5066661;28;20048;-66
2022/01/08 13:05:19;;;;;;;87.57;42.75;;;;;;;;;;5057791;28;20061;-67
2022/01/08 13:08:07;;;;;;;83.93;42.63;;;;;;;;;;5057473;28;20052;-66
2022/01/08 13:10:54;;;;;;;96.70;43.38;;;;;;;;;;5066526;28;20472;-67
2022/01/08 13:13:48;;;;;;;102.78;43.60;;;;;;;;;;5067409;28;20079;-70
2022/01/08 13:16:33;;;;;;;93.97;46.22;;;;;;;;;;5050364;28;20072;-70
2022/01/08 13:19:24;;;;;;;86.68;45.03;;;;;;;;;;5047313;28;20045;-65
2022/01/08 13:22:12;;;;;;;85.07;45.55;;;;;;;;;;5048944;28;20048;-72
2022/01/08 13:25:00;;;;;;;92.95;45.70;;;;;;;;;;5069002;28;20048;-69
2022/01/08 13:27:56;;;;;;;90.90;46.03;;;;;;;;;;5085220;28;20052;-69
2022/01/08 13:30:33;;;;;;;83.03;43.70;;;;;;;;;;5068490;28;20044;-71
2022/01/08 13:33:25;;;;;;;91.53;46.35;;;;;;;;;;5076538;28;20051;-76
2022/01/08 13:36:15;;;;;;;96.22;47.25;;;;;;;;;;5082516;28;20211;-70
2022/01/08 13:39:09;;;;;;;96.18;46.70;;;;;;;;;;5083739;28;20040;-69
2022/01/08 13:41:51;;;;;;;89.90;46.80;;;;;;;;;;5063161;28;20146;-72
2022/01/08 13:44:40;;;;;;;90.38;47.72;;;;;;;;;;5084447;28;20068;-69
2022/01/08 13:47:38;;;;;;;97.55;48.60;;;;;;;;;;5080775;28;20825;-66
2022/01/08 13:50:23;;;;;;;108.63;51.22;;;;;;;;;;5086484;28;20067;-64
2022/01/08 13:53:14;;;;;;;97.75;50.80;;;;;;;;;;5080355;28;20055;-70
2022/01/08 13:56:03;;;;;;;94.82;48.63;;;;;;;;;;5069871;28;20044;-69
2022/01/08 13:58:45;;;;;;;97.80;49.38;;;;;;;;;;5086615;28;20135;-70
2022/01/08 14:01:47;;;;;;;101.43;50.90;;;;;;;;;;5085801;28;20044;-71
2022/01/08 14:04:24;;;;;;;107.25;51.67;;;;;;;;;;5064882;28;20078;-71
2022/01/08 14:07:13;;;;;;;113.57;56.40;;;;;;;;;;5086784;28;20504;-71
2022/01/08 14:10:05;;;;;;;113.90;58.97;;;;;;;;;;5078372;28;20153;-71
2022/01/08 14:13:04;;;;;;;116.03;58.33;;;;;;;;;;5086484;28;20129;-71
2022/01/08 14:15:53;;;;;;;120.33;58.20;;;;;;;;;;5082784;28;20056;-70
2022/01/08 14:18:43;;;;;;;114.97;57.38;;;;;;;;;;5084102;28;20048;-65
2022/01/08 14:21:29;;;;;;;112.40;57.55;;;;;;;;;;5085529;28;20422;-69
2022/01/08 14:24:27;;;;;;;113.63;56.67;;;;;;;;;;5072409;28;20040;-70
2022/01/08 14:27:22;;;;;;;112.10;54.22;;;;;;;;;;5081242;28;20067;-68
2022/01/08 14:30:13;;;;;;;104.50;53.88;;;;;;;;;;5055592;28;20047;-69
2022/01/08 14:33:10;;;;;;;115.25;54.55;;;;;;;;;;5072656;28;20059;-67
2022/01/08 14:36:00;;;;;;;109.43;53.75;;;;;;;;;;5070934;28;20054;-67
2022/01/08 14:38:56;;;;;;;114.95;56.85;;;;;;;;;;5050619;28;20121;-66
2022/01/08 14:41:39;;;;;;;110.65;55.05;;;;;;;;;;5072849;28;20513;-67
2022/01/08 14:44:30;;;;;;;115.30;57.03;;;;;;;;;;5071912;28;20382;-67
2022/01/08 14:47:12;;;;;;;121.68;58.58;;;;;;;;;;5072370;28;20051;-68
2022/01/08 14:50:01;;;;;;;124.38;58.58;;;;;;;;;;5067235;28;20037;-68
2022/01/08 14:52:43;;;;;;;130.27;61.13;;;;;;;;;;5061821;28;20132;-68
2022/01/08 14:55:39;;;;;;;129.85;60.38;;;;;;;;;;5065183;28;20044;-67
2022/01/08 14:58:20;;;;;;;123.15;60.45;;;;;;;;;;5081784;28;20494;-67
2022/01/08 15:01:11;;;;;;;114.53;59.40;;;;;;;;;;5055207;28;20071;-67
2022/01/08 15:04:10;;;;;;;131.53;62.67;;;;;;;;;;5079752;28;20039;-67
2022/01/08 15:06:54;;;;;;;122.60;64.22;;;;;;;;;;5038107;28;20040;-67
2022/01/08 15:09:49;;;;;;;123.68;62.95;;;;;;;;;;5077916;28;20059;-68
2022/01/08 15:12:26;;;;;;;122.13;62.08;;;;;;;;;;5074655;28;20055;-66
2022/01/08 15:15:23;;;;;;;134.25;63.10;;;;;;;;;;5081717;28;20573;-66
2022/01/08 15:17:58;;;;;;;125.18;62.08;;;;;;;;;;5084413;28;20044;-66
2022/01/08 15:20:48;;;;;;;115.20;60.50;;;;;;;;;;5083412;28;20064;-66
2022/01/08 15:23:40;;;;;;;125.15;62.53;;;;;;;;;;5064438;28;20052;-66
2022/01/08 15:26:39;;;;;;;126.28;61.33;;;;;;;;;;5073815;28;20044;-66
2022/01/08 15:29:14;;;;;;;129.32;61.42;;;;;;;;;;5081557;28;20530;-66
2022/01/08 15:32:04;;;;;;;130.32;63.15;;;;;;;;;;5083581;28;20044;-66
2022/01/08 15:34:46;;;;;;;125.53;62.60;;;;;;;;;;5060963;28;20044;-66
2022/01/08 15:37:42;;;;;;;126.07;58.63;;;;;;;;;;5081687;28;20135;-66
2022/01/08 15:40:17;;;;;;;116.63;61.97;;;;;;;;;;5084923;28;20101;-66
2022/01/08 15:43:13;;;;;;;121.72;61.55;;;;;;;;;;5082646;28;20067;-66
2022/01/08 15:45:48;;;;;;;121.80;60.65;;;;;;;;;;5072793;28;20249;-65
2022/01/08 15:48:37;;;;;;;133.38;62.20;;;;;;;;;;5081970;28;20109;-66
2022/01/08 15:51:20;;;;;;;119.53;60.38;;;;;;;;;;5075587;28;20074;-66
2022/01/08 15:54:08;;;;;;;111.03;58.63;;;;;;;;;;5076991;28;20617;-66
2022/01/08 15:56:52;;;;;;;115.53;58.60;;;;;;;;;;5061140;28;20055;-66
2022/01/08 15:59:48;;;;;;;119.93;60.88;;;;;;;;;;5082835;28;20056;-66
2022/01/08 16:02:24;;;;;;;110.88;57.40;;;;;;;;;;5074380;28;20059;-67
2022/01/08 16:05:30;;;;;;;108.13;59.05;;;;;;;;;;5078769;28;20055;-65
2022/01/08 16:08:21;;;;;;;117.90;61.45;;;;;;;;;;5081728;28;20043;-68
2022/01/08 16:11:10;;;;;;;112.03;62.78;;;;;;;;;;5082411;28;20055;-67
2022/01/08 16:13:52;;;;;;;126.15;63.13;;;;;;;;;;5074947;28;20054;-66
2022/01/08 16:16:41;;;;;;;121.32;65.07;;;;;;;;;;5082536;28;20093;-68
2022/01/08 16:19:26;;;;;;;124.82;66.85;;;;;;;;;;5080626;28;20130;-65
2022/01/08 16:22:15;;;;;;;118.72;63.70;;;;;;;;;;5082807;28;20374;-66
2022/01/08 16:24:57;;;;;;;118.18;62.25;;;;;;;;;;5063082;28;20051;-65
2022/01/08 16:27:53;;;;;;;120.68;62.40;;;;;;;;;;5037461;28;20053;-64
2022/01/08 16:30:29;;;;;;;120.18;58.15;;;;;;;;;;5066630;28;20392;-65
2022/01/08 16:33:25;;;;;;;106.53;60.28;;;;;;;;;;5069240;28;20051;-65
2022/01/08 16:36:01;;;;;;;106.20;57.78;;;;;;;;;;5034677;28;20114;-65
2022/01/08 16:38:50;;;;;;;112.72;60.30;;;;;;;;;;5068359;28;20068;-67
2022/01/08 16:41:33;;;;;;;115.90;60.67;;;;;;;;;;5062263;28;20040;-67
2022/01/08 16:44:22;;;;;;;112.30;60.85;;;;;;;;;;5056630;28;20044;-66
2022/01/08 16:47:05;;;;;;;117.68;60.63;;;;;;;;;;5078057;28;20137;-66
2022/01/08 16:49:53;;;;;;;109.43;61.03;;;;;;;;;;5070712;28;20048;-66
2022/01/08 16:52:36;;;;;;;99.50;57.80;;;;;;;;;;5047580;28;20064;-66
2022/01/08 16:55:31;;;;;;;112.47;55.80;;;;;;;;;;5052346;28;20055;-67
2022/01/08 16:58:07;;;;;;;101.68;54.65;;;;;;;;;;5059533;28;20045;-64
2022/01/08 17:01:02;;;;;;;87.68;51.65;;;;;;;;;;5035738;28;20067;-66
2022/01/08 17:03:39;;;;;;;95.82;52.45;;;;;;;;;;5077173;28;20132;-68
2022/01/08 17:06:22;;;;;;;;;;;;;;;;;;5077702;28;20055;-68
2022/01/08 17:08:57;;;;;;;89.35;50.35;;;;;;;;;;5085553;28;20478;-72
2022/01/08 17:11:46;;;;;;;86.93;52.47;;;;;;;;;;5058964;28;20048;-69
2022/01/08 17:14:27;;;;;;;89.78;50.80;;;;;;;;;;5061527;28;20087;-70
2022/01/08 17:17:19;;;;;;;90.85;51.75;;;;;;;;;;5080152;28;20040;-70
2022/01/08 17:20:00;;;;;;;99.47;53.30;;;;;;;;;;5083647;28;20040;-68
2022/01/08 17:22:49;;;;;;;97.93;53.65;;;;;;;;;;5058732;28;20052;-71
2022/01/08 17:25:31;;;;;;;98.10;52.60;;;;;;;;;;5059131;28;20044;-69
2022/01/08 17:29:46;;;;;;;86.67;49.23;;;;;;;11.84;100.00;99062.16;4397456;27;10000045;-70
2022/01/08 17:32:39;;;;;;;79.38;51.28;;;;;;;11.89;100.00;99060.25;5043651;28;20609;-74